sensor_id;sensor_type;location;lat;lon;timestamp;temperature;humidity
8563;DHT22;16392;52.508;13.468;2022-08-23T00:01:41;18.50;99.90
8563;DHT22;16392;52.508;13.468;2022-08-23T00:04:12;18.50;99.90
8563;DHT22;16392;52.508;13.468;2022-08-23T00:06:41;18.50;99.90
8563;DHT22;16392;52.508;13.468;2022-08-23T00:09:08;18.40;99.90
8563;DHT22;16392;52.508;13.468;2022-08-23T00:11:39;18.40;99.90
8563;DHT22;16392;52.508;13.468;2022-08-23T00:14:08;18.40;99.90
8563;DHT22;16392;52.508;13.468;2022-08-23T00:16:36;18.40;99.90
8563;DHT22;16392;52.508;13.468;2022-08-23T00:19:04;18.30;99.90
8563;DHT22;16392;52.508;13.468;2022-08-23T00:21:32;18.30;99.90
8563;DHT22;16392;52.508;13.468;2022-08-23T00:24:02;18.30;99.90
8563;DHT22;16392;52.508;13.468;2022-08-23T00:26:47;18.30;99.90
8563;DHT22;16392;52.508;13.468;2022-08-23T00:29:14;18.30;99.90
8563;DHT22;16392;52.508;13.468;2022-08-23T00:31:40;18.30;99.90
8563;DHT22;16392;52.508;13.468;2022-08-23T00:34:07;18.30;99.90
8563;DHT22;16392;52.508;13.468;2022-08-23T00:36:34;18.30;99.90
8563;DHT22;16392;52.508;13.468;2022-08-23T00:39:02;18.30;99.90
8563;DHT22;16392;52.508;13.468;2022-08-23T00:41:29;18.30;99.90
8563;DHT22;16392;52.508;13.468;2022-08-23T00:43:56;18.30;99.90
8563;DHT22;16392;52.508;13.468;2022-08-23T00:46:56;18.30;99.90
8563;DHT22;16392;52.508;13.468;2022-08-23T00:49:44;18.30;99.90
8563;DHT22;16392;52.508;13.468;2022-08-23T00:52:17;18.30;99.90
8563;DHT22;16392;52.508;13.468;2022-08-23T00:54:46;18.30;99.90
8563;DHT22;16392;52.508;13.468;2022-08-23T00:57:15;18.30;99.90
8563;DHT22;16392;52.508;13.468;2022-08-23T00:59:43;18.30;99.90
8563;DHT22;16392;52.508;13.468;2022-08-23T01:02:10;18.30;99.90
8563;DHT22;16392;52.508;13.468;2022-08-23T01:04:40;18.30;99.90
8563;DHT22;16392;52.508;13.468;2022-08-23T01:07:12;18.30;99.90
8563;DHT22;16392;52.508;13.468;2022-08-23T01:09:42;18.30;99.90
8563;DHT22;16392;52.508;13.468;2022-08-23T01:12:14;18.30;99.90
8563;DHT22;16392;52.508;13.468;2022-08-23T01:14:47;18.30;99.90
8563;DHT22;16392;52.508;13.468;2022-08-23T01:17:19;18.30;99.90
8563;DHT22;16392;52.508;13.468;2022-08-23T01:19:49;18.30;99.90
8563;DHT22;16392;52.508;13.468;2022-08-23T01:22:24;18.30;99.90
8563;DHT22;16392;52.508;13.468;2022-08-23T01:24:54;18.20;99.90
8563;DHT22;16392;52.508;13.468;2022-08-23T01:27:21;18.30;99.90
8563;DHT22;16392;52.508;13.468;2022-08-23T01:29:48;18.30;99.90
8563;DHT22;16392;52.508;13.468;2022-08-23T01:32:14;18.30;99.90
8563;DHT22;16392;52.508;13.468;2022-08-23T01:34:41;18.30;99.90
8563;DHT22;16392;52.508;13.468;2022-08-23T01:37:08;18.20;99.90
8563;DHT22;16392;52.508;13.468;2022-08-23T01:39:35;18.20;99.90
8563;DHT22;16392;52.508;13.468;2022-08-23T01:42:04;18.10;99.90
8563;DHT22;16392;52.508;13.468;2022-08-23T01:44:30;18.10;99.90
8563;DHT22;16392;52.508;13.468;2022-08-23T01:46:57;18.10;99.90
8563;DHT22;16392;52.508;13.468;2022-08-23T01:49:24;18.10;99.90
8563;DHT22;16392;52.508;13.468;2022-08-23T01:51:50;18.10;99.90
8563;DHT22;16392;52.508;13.468;2022-08-23T01:54:17;18.10;99.90
8563;DHT22;16392;52.508;13.468;2022-08-23T01:56:43;18.10;99.90
8563;DHT22;16392;52.508;13.468;2022-08-23T01:59:12;18.10;99.90
8563;DHT22;16392;52.508;13.468;2022-08-23T02:01:39;18.10;99.90
8563;DHT22;16392;52.508;13.468;2022-08-23T02:04:05;18.10;99.90
8563;DHT22;16392;52.508;13.468;2022-08-23T02:06:32;18.00;99.90
8563;DHT22;16392;52.508;13.468;2022-08-23T02:08:59;18.00;99.90
8563;DHT22;16392;52.508;13.468;2022-08-23T02:11:31;18.00;99.90
8563;DHT22;16392;52.508;13.468;2022-08-23T02:14:00;18.00;99.90
8563;DHT22;16392;52.508;13.468;2022-08-23T02:16:33;18.00;99.90
8563;DHT22;16392;52.508;13.468;2022-08-23T02:19:05;18.00;99.90
8563;DHT22;16392;52.508;13.468;2022-08-23T02:21:33;18.00;99.90
8563;DHT22;16392;52.508;13.468;2022-08-23T02:24:03;18.00;99.90
8563;DHT22;16392;52.508;13.468;2022-08-23T02:26:30;18.00;99.90
8563;DHT22;16392;52.508;13.468;2022-08-23T02:28:57;18.00;99.90
8563;DHT22;16392;52.508;13.468;2022-08-23T02:31:24;18.00;99.90
8563;DHT22;16392;52.508;13.468;2022-08-23T02:33:52;18.00;99.90
8563;DHT22;16392;52.508;13.468;2022-08-23T02:36:19;18.00;99.90
8563;DHT22;16392;52.508;13.468;2022-08-23T02:38:45;18.00;99.90
8563;DHT22;16392;52.508;13.468;2022-08-23T02:41:12;18.00;99.90
8563;DHT22;16392;52.508;13.468;2022-08-23T02:43:41;18.00;99.90
8563;DHT22;16392;52.508;13.468;2022-08-23T02:46:07;18.00;99.90
8563;DHT22;16392;52.508;13.468;2022-08-23T02:48:35;18.00;99.90
8563;DHT22;16392;52.508;13.468;2022-08-23T02:51:06;18.00;99.90
8563;DHT22;16392;52.508;13.468;2022-08-23T02:53:34;18.00;99.90
8563;DHT22;16392;52.508;13.468;2022-08-23T02:56:01;18.00;99.90
8563;DHT22;16392;52.508;13.468;2022-08-23T02:58:28;18.00;99.90
8563;DHT22;16392;52.508;13.468;2022-08-23T03:00:55;18.00;99.90
8563;DHT22;16392;52.508;13.468;2022-08-23T03:03:23;18.00;99.90
8563;DHT22;16392;52.508;13.468;2022-08-23T03:05:50;17.90;99.90
8563;DHT22;16392;52.508;13.468;2022-08-23T03:08:19;17.90;99.90
8563;DHT22;16392;52.508;13.468;2022-08-23T03:10:49;17.90;99.90
8563;DHT22;16392;52.508;13.468;2022-08-23T03:13:18;17.90;99.90
8563;DHT22;16392;52.508;13.468;2022-08-23T03:15:44;17.90;99.90
8563;DHT22;16392;52.508;13.468;2022-08-23T03:18:11;17.90;99.90
8563;DHT22;16392;52.508;13.468;2022-08-23T03:20:38;17.90;99.90
8563;DHT22;16392;52.508;13.468;2022-08-23T03:23:06;17.90;99.90
8563;DHT22;16392;52.508;13.468;2022-08-23T03:25:34;17.90;99.90
8563;DHT22;16392;52.508;13.468;2022-08-23T03:28:02;17.90;99.90
8563;DHT22;16392;52.508;13.468;2022-08-23T03:30:30;17.90;99.90
8563;DHT22;16392;52.508;13.468;2022-08-23T03:32:58;17.90;99.90
8563;DHT22;16392;52.508;13.468;2022-08-23T03:35:25;17.80;99.90
8563;DHT22;16392;52.508;13.468;2022-08-23T03:37:52;17.90;99.90
8563;DHT22;16392;52.508;13.468;2022-08-23T03:40:19;17.90;99.90
8563;DHT22;16392;52.508;13.468;2022-08-23T03:42:48;17.80;99.90
8563;DHT22;16392;52.508;13.468;2022-08-23T03:45:16;17.80;99.90
8563;DHT22;16392;52.508;13.468;2022-08-23T03:47:43;17.80;99.90
8563;DHT22;16392;52.508;13.468;2022-08-23T03:50:10;17.80;99.90
8563;DHT22;16392;52.508;13.468;2022-08-23T03:52:37;17.80;99.90
8563;DHT22;16392;52.508;13.468;2022-08-23T03:55:05;17.70;99.90
8563;DHT22;16392;52.508;13.468;2022-08-23T03:57:32;17.70;99.90
8563;DHT22;16392;52.508;13.468;2022-08-23T04:00:00;17.80;99.90
8563;DHT22;16392;52.508;13.468;2022-08-23T04:02:27;17.80;99.90
8563;DHT22;16392;52.508;13.468;2022-08-23T04:04:53;17.80;99.90
8563;DHT22;16392;52.508;13.468;2022-08-23T04:07:22;17.80;99.90
8563;DHT22;16392;52.508;13.468;2022-08-23T04:09:48;17.90;99.90
8563;DHT22;16392;52.508;13.468;2022-08-23T04:12:15;17.90;99.90
8563;DHT22;16392;52.508;13.468;2022-08-23T04:14:42;17.80;99.90
8563;DHT22;16392;52.508;13.468;2022-08-23T04:17:11;17.90;99.90
8563;DHT22;16392;52.508;13.468;2022-08-23T04:19:38;17.90;99.90
8563;DHT22;16392;52.508;13.468;2022-08-23T04:22:04;17.90;99.90
8563;DHT22;16392;52.508;13.468;2022-08-23T04:24:36;17.90;99.90
8563;DHT22;16392;52.508;13.468;2022-08-23T04:27:04;17.90;99.90
8563;DHT22;16392;52.508;13.468;2022-08-23T04:29:31;17.90;99.90
8563;DHT22;16392;52.508;13.468;2022-08-23T04:31:57;18.00;99.90
8563;DHT22;16392;52.508;13.468;2022-08-23T04:34:25;18.00;99.90
8563;DHT22;16392;52.508;13.468;2022-08-23T04:36:53;18.00;99.90
8563;DHT22;16392;52.508;13.468;2022-08-23T04:39:20;18.00;99.90
8563;DHT22;16392;52.508;13.468;2022-08-23T04:41:46;18.00;99.90
8563;DHT22;16392;52.508;13.468;2022-08-23T04:44:30;18.00;99.90
8563;DHT22;16392;52.508;13.468;2022-08-23T04:46:57;18.00;99.90
8563;DHT22;16392;52.508;13.468;2022-08-23T04:49:23;18.00;99.90
8563;DHT22;16392;52.508;13.468;2022-08-23T04:51:51;18.00;99.90
8563;DHT22;16392;52.508;13.468;2022-08-23T04:54:18;18.00;99.90
8563;DHT22;16392;52.508;13.468;2022-08-23T04:56:45;18.00;99.90
8563;DHT22;16392;52.508;13.468;2022-08-23T04:59:13;18.00;99.90
8563;DHT22;16392;52.508;13.468;2022-08-23T05:01:39;18.10;99.90
8563;DHT22;16392;52.508;13.468;2022-08-23T05:04:07;18.10;99.90
8563;DHT22;16392;52.508;13.468;2022-08-23T05:06:34;18.00;99.90
8563;DHT22;16392;52.508;13.468;2022-08-23T05:09:02;18.00;99.90
8563;DHT22;16392;52.508;13.468;2022-08-23T05:11:29;18.00;99.90
8563;DHT22;16392;52.508;13.468;2022-08-23T05:13:56;18.00;99.90
8563;DHT22;16392;52.508;13.468;2022-08-23T05:16:23;18.00;99.90
8563;DHT22;16392;52.508;13.468;2022-08-23T05:18:49;18.00;99.90
8563;DHT22;16392;52.508;13.468;2022-08-23T05:21:18;18.00;99.90
8563;DHT22;16392;52.508;13.468;2022-08-23T05:23:45;18.00;99.90
8563;DHT22;16392;52.508;13.468;2022-08-23T05:26:14;18.10;99.90
8563;DHT22;16392;52.508;13.468;2022-08-23T05:28:47;18.10;99.90
8563;DHT22;16392;52.508;13.468;2022-08-23T05:31:15;18.10;99.90
8563;DHT22;16392;52.508;13.468;2022-08-23T05:33:43;18.10;99.90
8563;DHT22;16392;52.508;13.468;2022-08-23T05:36:12;18.20;99.90
8563;DHT22;16392;52.508;13.468;2022-08-23T05:38:39;18.30;99.90
8563;DHT22;16392;52.508;13.468;2022-08-23T05:41:06;18.30;99.90
8563;DHT22;16392;52.508;13.468;2022-08-23T05:43:35;18.30;99.90
8563;DHT22;16392;52.508;13.468;2022-08-23T05:46:03;18.30;99.90
8563;DHT22;16392;52.508;13.468;2022-08-23T05:48:30;18.30;99.90
8563;DHT22;16392;52.508;13.468;2022-08-23T05:51:07;18.30;99.90
8563;DHT22;16392;52.508;13.468;2022-08-23T05:53:35;18.40;99.90
8563;DHT22;16392;52.508;13.468;2022-08-23T05:56:11;18.30;99.90
8563;DHT22;16392;52.508;13.468;2022-08-23T05:58:39;18.30;99.90
8563;DHT22;16392;52.508;13.468;2022-08-23T06:01:06;18.40;99.90
8563;DHT22;16392;52.508;13.468;2022-08-23T06:03:33;18.40;99.90
8563;DHT22;16392;52.508;13.468;2022-08-23T06:06:01;18.40;99.90
8563;DHT22;16392;52.508;13.468;2022-08-23T06:08:28;18.40;99.90
8563;DHT22;16392;52.508;13.468;2022-08-23T06:10:59;18.40;99.90
8563;DHT22;16392;52.508;13.468;2022-08-23T06:13:26;18.50;99.90
8563;DHT22;16392;52.508;13.468;2022-08-23T06:15:54;18.50;99.90
8563;DHT22;16392;52.508;13.468;2022-08-23T06:18:21;18.70;99.90
8563;DHT22;16392;52.508;13.468;2022-08-23T06:20:48;18.80;99.90
8563;DHT22;16392;52.508;13.468;2022-08-23T06:23:23;18.90;99.90
8563;DHT22;16392;52.508;13.468;2022-08-23T06:25:50;19.10;99.90
8563;DHT22;16392;52.508;13.468;2022-08-23T06:28:17;19.30;99.90
8563;DHT22;16392;52.508;13.468;2022-08-23T06:30:43;19.40;99.90
8563;DHT22;16392;52.508;13.468;2022-08-23T06:33:12;19.30;99.90
8563;DHT22;16392;52.508;13.468;2022-08-23T06:35:39;19.20;99.90
8563;DHT22;16392;52.508;13.468;2022-08-23T06:38:06;19.40;99.90
8563;DHT22;16392;52.508;13.468;2022-08-23T06:40:33;19.50;99.90
8563;DHT22;16392;52.508;13.468;2022-08-23T06:43:00;19.60;99.90
8563;DHT22;16392;52.508;13.468;2022-08-23T06:45:26;19.90;99.90
8563;DHT22;16392;52.508;13.468;2022-08-23T06:47:53;20.30;99.90
8563;DHT22;16392;52.508;13.468;2022-08-23T06:50:21;20.50;99.90
8563;DHT22;16392;52.508;13.468;2022-08-23T06:52:48;20.60;99.90
8563;DHT22;16392;52.508;13.468;2022-08-23T06:55:15;20.80;99.90
8563;DHT22;16392;52.508;13.468;2022-08-23T06:57:42;21.40;99.90
8563;DHT22;16392;52.508;13.468;2022-08-23T07:00:09;21.50;99.90
8563;DHT22;16392;52.508;13.468;2022-08-23T07:02:36;21.70;99.90
8563;DHT22;16392;52.508;13.468;2022-08-23T07:05:04;21.80;99.90
8563;DHT22;16392;52.508;13.468;2022-08-23T07:07:32;21.80;99.90
8563;DHT22;16392;52.508;13.468;2022-08-23T07:09:58;21.70;99.90
8563;DHT22;16392;52.508;13.468;2022-08-23T07:12:25;21.40;99.90
8563;DHT22;16392;52.508;13.468;2022-08-23T07:14:53;21.00;99.90
8563;DHT22;16392;52.508;13.468;2022-08-23T07:17:20;20.60;99.90
8563;DHT22;16392;52.508;13.468;2022-08-23T07:19:47;20.80;99.90
8563;DHT22;16392;52.508;13.468;2022-08-23T07:22:14;21.00;99.90
8563;DHT22;16392;52.508;13.468;2022-08-23T07:24:42;21.00;99.90
8563;DHT22;16392;52.508;13.468;2022-08-23T07:27:09;21.10;99.90
8563;DHT22;16392;52.508;13.468;2022-08-23T07:29:37;21.10;99.90
8563;DHT22;16392;52.508;13.468;2022-08-23T07:32:05;20.90;99.90
8563;DHT22;16392;52.508;13.468;2022-08-23T07:34:32;20.70;99.90
8563;DHT22;16392;52.508;13.468;2022-08-23T07:36:58;20.90;99.90
8563;DHT22;16392;52.508;13.468;2022-08-23T07:39:26;21.10;99.90
8563;DHT22;16392;52.508;13.468;2022-08-23T07:41:54;21.10;99.90
8563;DHT22;16392;52.508;13.468;2022-08-23T07:44:20;21.20;99.90
8563;DHT22;16392;52.508;13.468;2022-08-23T07:46:47;21.20;99.90
8563;DHT22;16392;52.508;13.468;2022-08-23T07:49:14;21.50;99.90
8563;DHT22;16392;52.508;13.468;2022-08-23T07:51:45;21.60;99.90
8563;DHT22;16392;52.508;13.468;2022-08-23T07:54:12;21.40;99.90
8563;DHT22;16392;52.508;13.468;2022-08-23T07:56:39;21.70;99.90
8563;DHT22;16392;52.508;13.468;2022-08-23T07:59:09;21.80;99.90
8563;DHT22;16392;52.508;13.468;2022-08-23T08:01:37;21.70;99.90
8563;DHT22;16392;52.508;13.468;2022-08-23T08:04:04;21.70;99.90
8563;DHT22;16392;52.508;13.468;2022-08-23T08:06:37;21.90;99.90
8563;DHT22;16392;52.508;13.468;2022-08-23T08:09:04;21.90;99.90
8563;DHT22;16392;52.508;13.468;2022-08-23T08:11:32;21.90;99.90
8563;DHT22;16392;52.508;13.468;2022-08-23T08:13:59;21.50;99.90
8563;DHT22;16392;52.508;13.468;2022-08-23T08:16:30;21.50;99.90
8563;DHT22;16392;52.508;13.468;2022-08-23T08:18:59;21.60;99.90
8563;DHT22;16392;52.508;13.468;2022-08-23T08:21:27;21.90;99.90
8563;DHT22;16392;52.508;13.468;2022-08-23T08:23:55;22.20;99.90
8563;DHT22;16392;52.508;13.468;2022-08-23T08:26:22;22.70;99.90
8563;DHT22;16392;52.508;13.468;2022-08-23T08:28:49;22.90;99.90
8563;DHT22;16392;52.508;13.468;2022-08-23T08:31:16;22.40;99.90
8563;DHT22;16392;52.508;13.468;2022-08-23T08:33:44;22.20;99.90
8563;DHT22;16392;52.508;13.468;2022-08-23T08:36:31;21.90;99.90
8563;DHT22;16392;52.508;13.468;2022-08-23T08:38:59;22.00;99.90
8563;DHT22;16392;52.508;13.468;2022-08-23T08:41:38;22.30;99.90
8563;DHT22;16392;52.508;13.468;2022-08-23T08:44:13;22.00;99.90
8563;DHT22;16392;52.508;13.468;2022-08-23T08:46:45;22.30;99.90
8563;DHT22;16392;52.508;13.468;2022-08-23T08:49:17;22.70;99.90
8563;DHT22;16392;52.508;13.468;2022-08-23T08:51:54;23.30;66.80
8563;DHT22;16392;52.508;13.468;2022-08-23T08:54:25;23.20;1.00
8563;DHT22;16392;52.508;13.468;2022-08-23T08:56:56;22.70;9.80
8563;DHT22;16392;52.508;13.468;2022-08-23T08:59:41;22.60;95.50
8563;DHT22;16392;52.508;13.468;2022-08-23T09:02:15;22.60;99.90
8563;DHT22;16392;52.508;13.468;2022-08-23T09:04:45;22.80;60.00
8563;DHT22;16392;52.508;13.468;2022-08-23T09:07:21;22.70;1.00
8563;DHT22;16392;52.508;13.468;2022-08-23T09:10:02;22.70;1.00
8563;DHT22;16392;52.508;13.468;2022-08-23T09:12:37;22.60;50.90
8563;DHT22;16392;52.508;13.468;2022-08-23T09:15:20;22.60;88.60
8563;DHT22;16392;52.508;13.468;2022-08-23T09:17:51;22.80;1.00
8563;DHT22;16392;52.508;13.468;2022-08-23T09:20:24;22.80;4.40
8563;DHT22;16392;52.508;13.468;2022-08-23T09:22:58;23.00;1.00
8563;DHT22;16392;52.508;13.468;2022-08-23T09:25:26;22.80;1.00
8563;DHT22;16392;52.508;13.468;2022-08-23T09:27:52;22.70;1.00
8563;DHT22;16392;52.508;13.468;2022-08-23T09:30:20;22.80;1.00
8563;DHT22;16392;52.508;13.468;2022-08-23T09:32:47;22.40;1.00
8563;DHT22;16392;52.508;13.468;2022-08-23T09:35:21;22.70;1.00
8563;DHT22;16392;52.508;13.468;2022-08-23T09:37:58;22.80;99.90
8563;DHT22;16392;52.508;13.468;2022-08-23T09:40:30;22.80;99.90
8563;DHT22;16392;52.508;13.468;2022-08-23T09:43:06;22.90;99.90
8563;DHT22;16392;52.508;13.468;2022-08-23T09:45:35;22.90;99.90
8563;DHT22;16392;52.508;13.468;2022-08-23T09:48:02;23.00;99.90
8563;DHT22;16392;52.508;13.468;2022-08-23T09:50:35;23.20;99.90
8563;DHT22;16392;52.508;13.468;2022-08-23T09:53:06;23.30;1.00
8563;DHT22;16392;52.508;13.468;2022-08-23T09:55:36;23.30;1.00
8563;DHT22;16392;52.508;13.468;2022-08-23T09:58:14;23.20;1.00
8563;DHT22;16392;52.508;13.468;2022-08-23T10:00:43;23.10;1.00
8563;DHT22;16392;52.508;13.468;2022-08-23T10:03:22;23.20;1.00
8563;DHT22;16392;52.508;13.468;2022-08-23T10:05:52;23.30;1.00
8563;DHT22;16392;52.508;13.468;2022-08-23T10:08:26;23.50;99.90
8563;DHT22;16392;52.508;13.468;2022-08-23T10:10:56;23.70;1.00
8563;DHT22;16392;52.508;13.468;2022-08-23T10:13:24;23.50;1.00
8563;DHT22;16392;52.508;13.468;2022-08-23T10:15:58;23.70;99.90
8563;DHT22;16392;52.508;13.468;2022-08-23T10:18:38;24.00;1.00
8563;DHT22;16392;52.508;13.468;2022-08-23T10:21:19;24.10;99.90
8563;DHT22;16392;52.508;13.468;2022-08-23T10:23:54;24.20;99.90
8563;DHT22;16392;52.508;13.468;2022-08-23T10:26:26;23.90;1.00
8563;DHT22;16392;52.508;13.468;2022-08-23T10:28:57;23.90;1.00
8563;DHT22;16392;52.508;13.468;2022-08-23T10:31:51;23.90;1.00
8563;DHT22;16392;52.508;13.468;2022-08-23T10:34:42;23.80;1.00
8563;DHT22;16392;52.508;13.468;2022-08-23T10:37:27;24.00;99.90
8563;DHT22;16392;52.508;13.468;2022-08-23T10:40:00;24.00;6.70
8563;DHT22;16392;52.508;13.468;2022-08-23T10:42:36;24.20;99.90
8563;DHT22;16392;52.508;13.468;2022-08-23T10:45:14;23.80;99.90
8563;DHT22;16392;52.508;13.468;2022-08-23T10:47:52;23.50;1.00
8563;DHT22;16392;52.508;13.468;2022-08-23T10:50:25;24.00;1.00
8563;DHT22;16392;52.508;13.468;2022-08-23T10:52:56;24.20;1.00
8563;DHT22;16392;52.508;13.468;2022-08-23T10:55:32;24.10;9.40
8563;DHT22;16392;52.508;13.468;2022-08-23T10:58:14;23.90;99.90
8563;DHT22;16392;52.508;13.468;2022-08-23T11:00:44;24.10;1.00
8563;DHT22;16392;52.508;13.468;2022-08-23T11:03:20;24.40;99.90
8563;DHT22;16392;52.508;13.468;2022-08-23T11:09:00;24.80;99.90
8563;DHT22;16392;52.508;13.468;2022-08-23T11:11:40;25.10;99.90
8563;DHT22;16392;52.508;13.468;2022-08-23T11:14:09;25.00;99.90
8563;DHT22;16392;52.508;13.468;2022-08-23T11:16:37;25.20;99.90
8563;DHT22;16392;52.508;13.468;2022-08-23T11:19:11;25.00;1.00
8563;DHT22;16392;52.508;13.468;2022-08-23T11:21:46;25.10;1.00
8563;DHT22;16392;52.508;13.468;2022-08-23T11:24:48;25.00;99.90
8563;DHT22;16392;52.508;13.468;2022-08-23T11:27:25;24.90;1.00
8563;DHT22;16392;52.508;13.468;2022-08-23T11:29:52;25.20;1.00
8563;DHT22;16392;52.508;13.468;2022-08-23T11:35:09;24.80;99.90
8563;DHT22;16392;52.508;13.468;2022-08-23T11:37:55;24.80;1.00
8563;DHT22;16392;52.508;13.468;2022-08-23T11:40:56;24.60;1.00
8563;DHT22;16392;52.508;13.468;2022-08-23T11:43:27;24.70;99.90
8563;DHT22;16392;52.508;13.468;2022-08-23T11:46:28;24.50;1.00
8563;DHT22;16392;52.508;13.468;2022-08-23T11:49:10;24.70;1.00
8563;DHT22;16392;52.508;13.468;2022-08-23T11:51:47;24.70;1.00
8563;DHT22;16392;52.508;13.468;2022-08-23T11:54:27;24.90;1.00
8563;DHT22;16392;52.508;13.468;2022-08-23T11:57:18;24.40;99.90
8563;DHT22;16392;52.508;13.468;2022-08-23T12:00:06;24.60;1.00
8563;DHT22;16392;52.508;13.468;2022-08-23T12:02:45;25.80;99.90
8563;DHT22;16392;52.508;13.468;2022-08-23T12:05:21;26.40;99.90
8563;DHT22;16392;52.508;13.468;2022-08-23T12:08:30;27.10;1.00
8563;DHT22;16392;52.508;13.468;2022-08-23T12:11:04;27.60;99.90
8563;DHT22;16392;52.508;13.468;2022-08-23T12:13:52;27.40;66.30
8563;DHT22;16392;52.508;13.468;2022-08-23T12:16:33;26.90;99.90
8563;DHT22;16392;52.508;13.468;2022-08-23T12:19:03;26.60;99.90
8563;DHT22;16392;52.508;13.468;2022-08-23T12:21:41;26.90;99.90
8563;DHT22;16392;52.508;13.468;2022-08-23T12:24:16;27.10;99.90
8563;DHT22;16392;52.508;13.468;2022-08-23T12:26:50;26.90;1.00
8563;DHT22;16392;52.508;13.468;2022-08-23T12:29:38;26.90;1.00
8563;DHT22;16392;52.508;13.468;2022-08-23T12:32:16;27.50;70.60
8563;DHT22;16392;52.508;13.468;2022-08-23T12:34:59;27.10;1.00
8563;DHT22;16392;52.508;13.468;2022-08-23T12:37:35;27.10;99.90
8563;DHT22;16392;52.508;13.468;2022-08-23T12:40:07;26.90;99.90
8563;DHT22;16392;52.508;13.468;2022-08-23T12:42:36;27.20;1.00
8563;DHT22;16392;52.508;13.468;2022-08-23T12:45:10;27.40;1.00
8563;DHT22;16392;52.508;13.468;2022-08-23T12:47:38;27.40;55.80
8563;DHT22;16392;52.508;13.468;2022-08-23T12:50:26;27.60;1.00
8563;DHT22;16392;52.508;13.468;2022-08-23T12:52:57;27.10;99.90
8563;DHT22;16392;52.508;13.468;2022-08-23T12:55:30;27.30;99.90
8563;DHT22;16392;52.508;13.468;2022-08-23T12:57:57;27.60;99.90
8563;DHT22;16392;52.508;13.468;2022-08-23T13:00:30;27.10;1.00
8563;DHT22;16392;52.508;13.468;2022-08-23T13:03:00;26.70;1.00
8563;DHT22;16392;52.508;13.468;2022-08-23T13:05:47;26.00;99.90
8563;DHT22;16392;52.508;13.468;2022-08-23T13:08:18;25.40;1.00
8563;DHT22;16392;52.508;13.468;2022-08-23T13:10:46;25.30;1.00
8563;DHT22;16392;52.508;13.468;2022-08-23T13:13:15;25.10;1.00
8563;DHT22;16392;52.508;13.468;2022-08-23T13:15:48;25.30;92.80
8563;DHT22;16392;52.508;13.468;2022-08-23T13:18:39;25.60;1.00
8563;DHT22;16392;52.508;13.468;2022-08-23T13:21:27;26.20;99.90
8563;DHT22;16392;52.508;13.468;2022-08-23T13:23:55;26.30;87.90
8563;DHT22;16392;52.508;13.468;2022-08-23T13:26:36;26.60;99.90
8563;DHT22;16392;52.508;13.468;2022-08-23T13:29:07;27.10;1.00
8563;DHT22;16392;52.508;13.468;2022-08-23T13:31:55;27.30;1.00
8563;DHT22;16392;52.508;13.468;2022-08-23T13:34:37;27.50;1.00
8563;DHT22;16392;52.508;13.468;2022-08-23T13:37:15;26.60;1.00
8563;DHT22;16392;52.508;13.468;2022-08-23T13:39:45;26.90;1.00
8563;DHT22;16392;52.508;13.468;2022-08-23T13:42:12;27.10;99.90
8563;DHT22;16392;52.508;13.468;2022-08-23T13:44:40;27.10;99.90
8563;DHT22;16392;52.508;13.468;2022-08-23T13:47:20;27.10;99.90
8563;DHT22;16392;52.508;13.468;2022-08-23T13:49:47;27.20;99.90
8563;DHT22;16392;52.508;13.468;2022-08-23T13:52:14;27.10;99.90
8563;DHT22;16392;52.508;13.468;2022-08-23T13:54:41;26.30;1.00
8563;DHT22;16392;52.508;13.468;2022-08-23T13:57:11;26.50;1.00
8563;DHT22;16392;52.508;13.468;2022-08-23T13:59:40;26.90;1.00
8563;DHT22;16392;52.508;13.468;2022-08-23T14:02:11;26.90;1.00
8563;DHT22;16392;52.508;13.468;2022-08-23T14:04:39;27.00;1.00
8563;DHT22;16392;52.508;13.468;2022-08-23T14:07:06;26.90;1.00
8563;DHT22;16392;52.508;13.468;2022-08-23T14:09:33;26.20;99.90
8563;DHT22;16392;52.508;13.468;2022-08-23T14:12:02;25.50;99.90
8563;DHT22;16392;52.508;13.468;2022-08-23T14:14:31;25.50;1.00
8563;DHT22;16392;52.508;13.468;2022-08-23T14:16:58;25.80;1.00
8563;DHT22;16392;52.508;13.468;2022-08-23T14:19:27;26.00;99.90
8563;DHT22;16392;52.508;13.468;2022-08-23T14:21:55;25.70;1.00
8563;DHT22;16392;52.508;13.468;2022-08-23T14:24:22;25.50;99.90
8563;DHT22;16392;52.508;13.468;2022-08-23T14:26:50;25.50;99.90
8563;DHT22;16392;52.508;13.468;2022-08-23T14:29:17;25.60;99.90
8563;DHT22;16392;52.508;13.468;2022-08-23T14:31:44;25.50;99.90
8563;DHT22;16392;52.508;13.468;2022-08-23T14:34:10;25.30;99.90
8563;DHT22;16392;52.508;13.468;2022-08-23T14:36:39;25.20;1.00
8563;DHT22;16392;52.508;13.468;2022-08-23T14:39:06;25.40;1.00
8563;DHT22;16392;52.508;13.468;2022-08-23T14:41:33;25.40;1.00
8563;DHT22;16392;52.508;13.468;2022-08-23T14:44:00;25.40;1.00
8563;DHT22;16392;52.508;13.468;2022-08-23T14:46:27;25.40;99.90
8563;DHT22;16392;52.508;13.468;2022-08-23T14:48:54;25.30;1.00
8563;DHT22;16392;52.508;13.468;2022-08-23T14:51:24;25.00;1.00
8563;DHT22;16392;52.508;13.468;2022-08-23T14:53:53;25.00;99.90
8563;DHT22;16392;52.508;13.468;2022-08-23T14:56:20;25.10;1.00
8563;DHT22;16392;52.508;13.468;2022-08-23T14:58:47;25.20;72.30
8563;DHT22;16392;52.508;13.468;2022-08-23T15:01:14;25.20;1.00
8563;DHT22;16392;52.508;13.468;2022-08-23T15:03:41;25.40;99.90
8563;DHT22;16392;52.508;13.468;2022-08-23T15:06:09;25.40;1.00
8563;DHT22;16392;52.508;13.468;2022-08-23T15:08:36;25.30;1.00
8563;DHT22;16392;52.508;13.468;2022-08-23T15:11:04;25.10;99.90
8563;DHT22;16392;52.508;13.468;2022-08-23T15:13:33;24.90;99.90
8563;DHT22;16392;52.508;13.468;2022-08-23T15:16:03;24.70;1.00
8563;DHT22;16392;52.508;13.468;2022-08-23T15:18:31;24.80;99.90
8563;DHT22;16392;52.508;13.468;2022-08-23T15:20:58;24.80;99.90
8563;DHT22;16392;52.508;13.468;2022-08-23T15:23:25;24.60;1.00
8563;DHT22;16392;52.508;13.468;2022-08-23T15:25:52;24.40;1.00
8563;DHT22;16392;52.508;13.468;2022-08-23T15:28:22;24.40;1.00
8563;DHT22;16392;52.508;13.468;2022-08-23T15:30:49;24.60;1.00
8563;DHT22;16392;52.508;13.468;2022-08-23T15:33:17;24.70;1.00
8563;DHT22;16392;52.508;13.468;2022-08-23T15:35:50;24.80;99.90
8563;DHT22;16392;52.508;13.468;2022-08-23T15:38:18;24.80;99.90
8563;DHT22;16392;52.508;13.468;2022-08-23T15:40:47;24.70;99.90
8563;DHT22;16392;52.508;13.468;2022-08-23T15:43:14;24.80;99.90
8563;DHT22;16392;52.508;13.468;2022-08-23T15:45:42;24.80;1.00
8563;DHT22;16392;52.508;13.468;2022-08-23T15:48:13;24.70;1.00
8563;DHT22;16392;52.508;13.468;2022-08-23T15:50:43;24.80;85.20
8563;DHT22;16392;52.508;13.468;2022-08-23T15:53:10;24.80;16.20
8563;DHT22;16392;52.508;13.468;2022-08-23T15:55:38;24.70;42.60
8563;DHT22;16392;52.508;13.468;2022-08-23T15:58:05;24.70;1.00
8563;DHT22;16392;52.508;13.468;2022-08-23T16:00:32;24.60;1.00
8563;DHT22;16392;52.508;13.468;2022-08-23T16:03:00;24.60;1.00